Flight Track Log - Related Links

Times and Time Zones

All times are in EDT time to prevent confusion due to time zone crossing. See the CES2121 flight status page for this flight to view local times or setup timezone preferences in your user account.

Time Position Orientation Groundspeed Altitude Reporting Facility
EDT Latitude Longitude Course Direction KTS MPH feet Rate Location/Type
Sun 07:50:00 PM 38.6199 107.7797 74° East  Level Estimated
Sun 07:51:00 PM 38.6461 107.9063 75° East  Level Estimated
Sun 07:52:00 PM 38.6721 108.0330 75° East  Level Estimated
Sun 07:53:00 PM 38.6981 108.1598 75° East  Level Estimated
Sun 07:54:00 PM 38.7239 108.2866 75° East  Level Estimated
Sun 07:55:00 PM 38.7495 108.4136 75° East  Level Estimated
Sun 07:56:00 PM 38.7750 108.5406 76° East  Level Estimated
Sun 07:57:00 PM 38.8004 108.6678 76° East  Level Estimated
Sun 07:58:00 PM 38.8256 108.7950 76° East  Level Estimated
Sun 07:59:00 PM 38.8507 108.9223 76° East  Level Estimated
Sun 08:00:00 PM 38.8757 109.0497 76° East  Level Estimated
Sun 08:01:00 PM 38.9005 109.1772 76° East  Level Estimated
Sun 08:02:00 PM 38.9252 109.3048 76° East  Level Estimated
Sun 08:03:00 PM 38.9497 109.4325 76° East  Level Estimated
Sun 08:04:00 PM 38.9741 109.5603 76° East  Level Estimated
Sun 08:05:00 PM 38.9984 109.6881 76° East  Level Estimated
Sun 08:06:00 PM 39.0225 109.8161 76° East  Level Estimated
Sun 08:07:00 PM 39.0465 109.9441 76° East  Level Estimated
Sun 08:08:00 PM 39.0703 110.0722 76° East  Level Estimated
Sun 08:09:00 PM 39.0940 110.2004 77° East  Level Estimated
Sun 08:10:00 PM 39.1176 110.3287 77° East  Level Estimated
Sun 08:11:00 PM 39.1410 110.4571 77° East  Level Estimated
Sun 08:12:00 PM 39.1643 110.5855 77° East  Level Estimated
Sun 08:13:00 PM 39.1874 110.7141 77° East  Level Estimated
Sun 08:14:00 PM 39.2104 110.8427 77° East  Level Estimated
Sun 08:15:00 PM 39.2333 110.9714 77° East  Level Estimated
Sun 08:16:00 PM 39.2560 111.1002 77° East  Level Estimated
Sun 08:17:00 PM 39.2786 111.2291 77° East  Level Estimated
Sun 08:18:00 PM 39.3010 111.3581 77° East  Level Estimated
Sun 08:19:00 PM 39.3233 111.4871 77° East  Level Estimated
Sun 08:20:00 PM 39.3454 111.6163 77° East  Level Estimated
Sun 08:21:00 PM 39.3674 111.7455 78° East  Level Estimated
Sun 08:22:00 PM 39.3893 111.8748 78° East  Level Estimated
Sun 08:23:00 PM 39.4110 112.0041 78° East  Level Estimated
Sun 08:24:00 PM 39.4326 112.1336 78° East  Level Estimated
Sun 08:25:00 PM 39.4540 112.2631 78° East  Level Estimated
Sun 08:26:00 PM 39.4753 112.3927 78° East  Level Estimated
Sun 08:27:00 PM 39.4965 112.5224 78° East  Level Estimated
Sun 08:28:00 PM 39.5175 112.6522 78° East  Level Estimated
Sun 08:29:00 PM 39.5383 112.7820 78° East  Level Estimated
Sun 08:30:00 PM 39.5590 112.9120 78° East  Level Estimated
Sun 08:31:00 PM 39.5796 113.0420 78° East  Level Estimated
Sun 08:32:00 PM 39.6000 113.1720 78° East  Level Estimated
Sun 08:33:00 PM 39.6203 113.3022 79° East  Level Estimated
Sun 08:34:00 PM 39.6404 113.4324 79° East  Level Estimated
Sun 08:35:00 PM 39.6604 113.5627 79° East  Level Estimated
Sun 08:36:00 PM 39.6802 113.6931 79° East  Level Estimated
Sun 08:37:00 PM 39.6999 113.8236 79° East  Level Estimated
Sun 08:38:00 PM 39.7195 113.9541 79° East  Level Estimated
Sun 08:39:00 PM 39.7389 114.0847 79° East  Level Estimated
Sun 08:40:00 PM 39.7581 114.2154 79° East  Level Estimated
Sun 08:41:00 PM 39.7772 114.3462 79° East  Level Estimated
Sun 08:42:00 PM 39.7962 114.4770 79° East  Level Estimated
Sun 08:43:00 PM 39.8150 114.6079 79° East  Level Estimated
Sun 08:44:00 PM 39.8337 114.7388 79° East  Level Estimated
Sun 08:45:00 PM 39.8522 114.8699 80° East  Level Estimated
Sun 08:46:00 PM 39.8706 115.0010 80° East  Level Estimated
Sun 08:47:00 PM 39.8888 115.1322 80° East  Level Estimated
Sun 08:48:00 PM 39.9069 115.2634 80° East  Level Estimated
Sun 08:49:00 PM 39.9248 115.3947 80° East  Level Estimated
Sun 08:50:00 PM 39.9426 115.5261 80° East  Level Estimated
Sun 08:51:00 PM 39.9602 115.6576 80° East  Level Estimated
Sun 08:52:00 PM 39.9777 115.7891 80° East  Level Estimated
Sun 08:53:00 PM 39.9950 115.9207 80° East  Level Estimated
Sun 08:54:00 PM 40.0122 116.0523 80° East  Level Estimated
Sun 08:55:00 PM 40.0293 116.1841 80° East  Level Estimated
Sun 08:56:00 PM 40.0462 116.3158 80° East  Level Estimated
Sun 08:57:00 PM 40.0629 116.4477 81° East  Level Estimated
Sun 08:58:00 PM 40.0795 116.5796 81° East  Level Estimated
Sun 08:59:00 PM 40.0801 116.5846 81° East  Level Estimated
Sun 09:00:00 PM 40.0801 116.5846 288° West  Level Estimated
Sun 09:01:00 PM 40.0801 116.5846 288° West  Level Estimated
Sun 09:02:00 PM 40.0801 116.5846 288° West  Level Estimated
Sun 09:03:00 PM 40.0801 116.5846 288° West  Level Estimated
Sun 09:04:00 PM 40.0801 116.5846 288° West  Level Estimated
Sun 09:05:00 PM 40.0801 116.5846 288° West  Level Estimated
Sun 09:06:00 PM 40.0801 116.5846 288° West  Level Estimated
Sun 09:07:00 PM 40.0801 116.5846 288° West  Level Estimated
Sun 09:08:00 PM 40.0801 116.5846 288° West  Level Estimated
Sun 09:09:00 PM 40.0801 116.5846 288° West  Level Estimated
Sun 09:10:00 PM 40.0801 116.5846 288° West  Level Estimated
Sun 09:11:00 PM 40.0801 116.5846 288° West  Level Estimated
Sun 09:12:00 PM 40.0801 116.5846 288° West  Level Estimated
Sun 09:13:00 PM 40.0801 116.5846 288° West  Level Estimated
Sun 09:14:00 PM 40.0801 116.5846 288° West  Level Estimated

Login

Don't have an account? Register now (free) for customized features, flight alerts, and more!